createdAt,value
2018-03-16T00:00:10.478Z,20.20
2018-03-16T00:01:10.445Z,22.20
2018-03-16T00:02:10.413Z,21.70
2018-03-16T00:03:10.387Z,21.50
2018-03-16T00:04:10.356Z,20.90
2018-03-16T00:05:10.573Z,19.60
2018-03-16T00:06:10.293Z,20.70
2018-03-16T00:07:10.257Z,23.70
2018-03-16T00:08:10.228Z,19.80
2018-03-16T00:09:10.197Z,21.90
2018-03-16T00:10:10.161Z,19.70
2018-03-16T00:11:10.135Z,21.00
2018-03-16T00:12:10.102Z,23.20
2018-03-16T00:13:10.066Z,22.00
2018-03-16T00:14:10.033Z,21.70
2018-03-16T00:15:10.000Z,21.90
2018-03-16T00:16:09.970Z,25.50
2018-03-16T00:17:09.947Z,21.30
2018-03-16T00:18:09.910Z,21.50
2018-03-16T00:19:09.887Z,21.40
2018-03-16T00:20:09.841Z,22.00
2018-03-16T00:21:09.815Z,24.10
2018-03-16T00:22:09.783Z,22.30
2018-03-16T00:23:09.748Z,21.30
2018-03-16T00:24:09.716Z,23.00
2018-03-16T00:25:09.684Z,22.00
2018-03-16T00:26:09.662Z,21.50
2018-03-16T00:27:09.621Z,22.80
2018-03-16T00:28:09.590Z,22.10
2018-03-16T00:29:09.560Z,21.50
2018-03-16T00:30:09.530Z,22.70
2018-03-16T00:31:09.502Z,25.80
2018-03-16T00:32:09.471Z,20.80
2018-03-16T00:33:09.431Z,22.30
2018-03-16T00:34:09.407Z,21.00
2018-03-16T00:35:09.379Z,26.20
2018-03-16T00:36:09.338Z,20.30
2018-03-16T00:37:09.312Z,21.90
2018-03-16T00:38:09.279Z,24.40
2018-03-16T00:39:09.247Z,23.60
2018-03-16T00:40:09.213Z,25.50
2018-03-16T00:41:09.188Z,22.20
2018-03-16T00:42:09.149Z,24.40
2018-03-16T00:43:09.122Z,22.90
2018-03-16T00:44:09.091Z,21.50
2018-03-16T00:45:09.064Z,25.50
2018-03-16T00:46:09.029Z,23.30
2018-03-16T00:47:08.994Z,23.70
2018-03-16T00:48:08.960Z,26.80
2018-03-16T00:49:08.930Z,24.90
2018-03-16T00:50:08.897Z,23.20
2018-03-16T00:51:08.866Z,25.00
2018-03-16T00:52:08.835Z,23.50
2018-03-16T00:53:08.799Z,25.70
2018-03-16T00:54:08.775Z,26.10
2018-03-16T00:55:08.740Z,25.70
2018-03-16T00:56:08.711Z,22.80
2018-03-16T00:57:08.676Z,23.50
2018-03-16T00:58:08.643Z,24.40
2018-03-16T00:59:08.614Z,24.40
2018-03-16T01:00:08.584Z,24.00
2018-03-16T01:01:08.553Z,22.70
2018-03-16T01:02:08.517Z,24.80
2018-03-16T01:03:08.486Z,23.30
2018-03-16T01:04:08.459Z,25.80
2018-03-16T01:05:08.427Z,25.60
2018-03-16T01:06:08.395Z,23.70
2018-03-16T01:07:08.363Z,23.50
2018-03-16T01:08:08.338Z,21.60
2018-03-16T01:09:08.452Z,24.10
2018-03-16T01:10:08.270Z,23.80
2018-03-16T01:11:08.235Z,26.30
2018-03-16T01:12:08.200Z,21.20
2018-03-16T01:13:08.174Z,24.10
2018-03-16T01:14:08.138Z,22.40
2018-03-16T01:15:08.111Z,22.70
2018-03-16T01:16:08.078Z,28.30
2018-03-16T01:17:08.056Z,26.30
2018-03-16T01:18:08.012Z,23.20
2018-03-16T01:19:07.981Z,25.20
2018-03-16T01:20:07.950Z,24.70
2018-03-16T01:21:07.917Z,26.80
2018-03-16T01:22:07.893Z,23.90
2018-03-16T01:23:07.861Z,25.20
2018-03-16T01:24:07.823Z,26.60
2018-03-16T01:25:07.794Z,24.40
2018-03-16T01:26:07.762Z,24.20
2018-03-16T01:27:07.738Z,23.30
2018-03-16T01:28:07.695Z,22.70
2018-03-16T01:29:07.671Z,25.70
2018-03-16T01:30:07.637Z,25.80
2018-03-16T01:31:07.600Z,23.70
2018-03-16T01:32:07.572Z,24.90
2018-03-16T01:33:07.538Z,25.90
2018-03-16T01:34:07.508Z,26.50
2018-03-16T01:35:07.485Z,26.80
2018-03-16T01:36:07.446Z,24.10
2018-03-16T01:37:07.415Z,24.90
2018-03-16T01:38:07.385Z,25.40
2018-03-16T01:39:07.346Z,24.20
2018-03-16T01:40:07.321Z,25.40
2018-03-16T01:41:07.294Z,26.10
2018-03-16T01:42:07.256Z,26.00
2018-03-16T01:43:07.222Z,24.90
2018-03-16T01:44:07.200Z,25.80
2018-03-16T01:45:07.160Z,26.00
2018-03-16T01:46:07.133Z,25.50
2018-03-16T01:47:07.093Z,25.40
2018-03-16T01:48:07.071Z,26.20
2018-03-16T01:49:07.038Z,25.40
2018-03-16T01:50:07.304Z,27.00
2018-03-16T01:51:06.982Z,23.70
2018-03-16T01:52:06.944Z,25.50
2018-03-16T01:53:06.905Z,25.10
2018-03-16T01:54:06.876Z,22.60
2018-03-16T01:55:06.839Z,22.40
2018-03-16T01:56:07.114Z,26.10
2018-03-16T01:57:06.783Z,24.80
2018-03-16T01:58:06.747Z,23.30
2018-03-16T01:59:06.716Z,23.20
2018-03-16T02:00:06.687Z,25.30
2018-03-16T02:01:06.656Z,23.60
2018-03-16T02:02:06.627Z,23.30
2018-03-16T02:03:06.634Z,24.70
2018-03-16T02:04:06.640Z,23.90
2018-03-16T02:05:06.556Z,23.20
2018-03-16T02:06:06.496Z,23.50
2018-03-16T02:07:06.469Z,24.20
2018-03-16T02:08:06.433Z,22.70
2018-03-16T02:09:06.401Z,25.20
2018-03-16T02:10:06.371Z,23.10
2018-03-16T02:11:06.339Z,24.60
2018-03-16T02:12:06.304Z,25.40
2018-03-16T02:13:06.282Z,22.90
2018-03-16T02:14:06.238Z,25.20
2018-03-16T02:15:06.221Z,25.20
2018-03-16T02:16:06.174Z,26.60
2018-03-16T02:17:06.150Z,25.00
2018-03-16T02:18:06.119Z,25.60
2018-03-16T02:19:06.085Z,23.80
2018-03-16T02:20:06.051Z,26.10
2018-03-16T02:21:06.025Z,23.80
2018-03-16T02:22:05.990Z,24.50
2018-03-16T02:23:05.952Z,25.20
2018-03-16T02:24:05.928Z,26.80
2018-03-16T02:25:05.897Z,28.50
2018-03-16T02:26:05.860Z,28.60
2018-03-16T02:27:05.827Z,25.70
2018-03-16T02:28:05.799Z,25.40
2018-03-16T02:29:05.768Z,27.20
2018-03-16T02:30:05.741Z,27.70
2018-03-16T02:31:05.710Z,28.40
2018-03-16T02:32:05.671Z,29.90
2018-03-16T02:33:05.646Z,26.70
2018-03-16T02:34:05.607Z,25.30
2018-03-16T02:35:05.575Z,27.00
2018-03-16T02:36:05.544Z,28.50
2018-03-16T02:37:05.518Z,25.90
2018-03-16T02:38:05.479Z,27.70
2018-03-16T02:39:05.457Z,29.20
2018-03-16T02:40:05.420Z,29.60
2018-03-16T02:41:05.396Z,28.40
2018-03-16T02:42:05.356Z,26.10
2018-03-16T02:43:05.326Z,24.80
2018-03-16T02:44:05.290Z,24.90
2018-03-16T02:45:05.257Z,24.50
2018-03-16T02:46:05.232Z,23.60
2018-03-16T02:47:05.198Z,24.00
2018-03-16T02:48:05.164Z,24.40
2018-03-16T02:49:05.448Z,24.30
2018-03-16T02:50:05.098Z,25.30
2018-03-16T02:51:05.073Z,25.00
2018-03-16T02:52:05.048Z,23.60
2018-03-16T02:53:05.008Z,25.50
2018-03-16T02:54:04.982Z,26.00
2018-03-16T02:55:04.941Z,27.90
2018-03-16T02:56:04.916Z,24.40
2018-03-16T02:57:04.883Z,23.60
2018-03-16T02:58:04.844Z,24.70
2018-03-16T02:59:04.815Z,24.50
2018-03-16T03:00:04.785Z,25.90
2018-03-16T03:01:04.756Z,25.20
2018-03-16T03:02:04.719Z,27.00
2018-03-16T03:03:04.687Z,24.60
2018-03-16T03:04:04.660Z,26.80
2018-03-16T03:05:04.626Z,24.60
2018-03-16T03:06:04.588Z,26.40
2018-03-16T03:07:04.559Z,24.10
2018-03-16T03:08:04.524Z,24.20
2018-03-16T03:09:04.498Z,25.00
2018-03-16T03:10:04.465Z,25.10
2018-03-16T03:11:04.431Z,25.30
2018-03-16T03:12:04.403Z,24.30
2018-03-16T03:13:04.381Z,24.70
2018-03-16T03:14:04.333Z,25.20
2018-03-16T03:15:04.303Z,25.10
2018-03-16T03:16:04.268Z,24.10
2018-03-16T03:17:04.240Z,25.10
2018-03-16T03:18:04.213Z,29.50
2018-03-16T03:19:04.171Z,28.20
2018-03-16T03:20:04.139Z,24.10
2018-03-16T03:21:04.115Z,24.70
2018-03-16T03:22:04.080Z,24.70
2018-03-16T03:23:04.057Z,25.70
2018-03-16T03:24:04.174Z,22.20
2018-03-16T03:25:03.985Z,23.60
2018-03-16T03:26:03.951Z,23.70
2018-03-16T03:27:03.914Z,24.80
2018-03-16T03:28:03.889Z,24.20
2018-03-16T03:29:03.852Z,25.70
2018-03-16T03:30:03.827Z,23.40
2018-03-16T03:31:03.792Z,25.40
2018-03-16T03:32:03.758Z,26.90
2018-03-16T03:33:03.722Z,23.60
2018-03-16T03:34:03.697Z,24.20
2018-03-16T03:35:03.663Z,26.00
2018-03-16T03:36:03.635Z,23.10
2018-03-16T03:37:03.603Z,22.10
2018-03-16T03:38:03.562Z,25.60
2018-03-16T03:39:03.533Z,27.20
2018-03-16T03:40:03.502Z,23.80
2018-03-16T03:41:03.468Z,23.20
2018-03-16T03:42:03.442Z,23.50
2018-03-16T03:43:03.412Z,26.10
2018-03-16T03:44:03.372Z,24.10
2018-03-16T03:45:03.346Z,24.10
2018-03-16T03:46:03.312Z,24.20
2018-03-16T03:47:03.273Z,22.90
2018-03-16T03:48:03.241Z,22.30
2018-03-16T03:49:03.214Z,23.90
2018-03-16T03:50:03.179Z,24.80
2018-03-16T03:51:03.150Z,24.00
2018-03-16T03:52:03.113Z,22.80
2018-03-16T03:53:03.091Z,23.60
2018-03-16T03:54:03.077Z,22.80
2018-03-16T03:55:03.016Z,23.30
2018-03-16T03:56:03.000Z,25.10
2018-03-16T03:57:02.954Z,23.40
2018-03-16T03:58:02.920Z,25.20
2018-03-16T03:59:02.891Z,23.00
2018-03-16T04:00:02.856Z,22.50
2018-03-16T04:01:02.825Z,23.00
2018-03-16T04:02:02.790Z,22.70
2018-03-16T04:03:02.766Z,20.60
2018-03-16T04:04:02.733Z,22.70
2018-03-16T04:05:02.702Z,21.20
2018-03-16T04:06:02.662Z,20.50
2018-03-16T04:07:02.630Z,22.10
2018-03-16T04:08:02.603Z,22.80
2018-03-16T04:09:02.569Z,23.50
2018-03-16T04:10:02.539Z,21.40
2018-03-16T04:11:02.505Z,21.60
2018-03-16T04:12:02.473Z,23.50
2018-03-16T04:13:02.445Z,21.60
2018-03-16T04:14:02.407Z,21.20
2018-03-16T04:15:02.371Z,22.00
2018-03-16T04:16:02.344Z,21.40
2018-03-16T04:17:02.311Z,23.50
2018-03-16T04:18:02.285Z,20.60
2018-03-16T04:19:02.242Z,21.10
2018-03-16T04:20:02.215Z,22.20
2018-03-16T04:21:02.187Z,24.50
2018-03-16T04:22:02.148Z,26.00
2018-03-16T04:23:02.119Z,21.60
2018-03-16T04:24:02.080Z,23.60
2018-03-16T04:25:02.058Z,24.20
2018-03-16T04:26:02.015Z,20.50
2018-03-16T04:27:01.982Z,22.90
2018-03-16T04:28:01.952Z,22.10
2018-03-16T04:29:01.923Z,23.70
2018-03-16T04:30:01.886Z,20.90
2018-03-16T04:31:01.862Z,22.00
2018-03-16T04:32:01.822Z,24.00
2018-03-16T04:33:01.794Z,24.60
2018-03-16T04:34:01.758Z,26.80
2018-03-16T04:35:01.723Z,22.50
2018-03-16T04:36:01.696Z,21.20
2018-03-16T04:37:01.666Z,21.20
2018-03-16T04:38:01.628Z,19.40
2018-03-16T04:39:01.597Z,19.50
2018-03-16T04:40:01.569Z,21.70
2018-03-16T04:41:01.532Z,19.10
2018-03-16T04:42:01.505Z,23.30
2018-03-16T04:43:01.471Z,20.40
2018-03-16T04:44:01.436Z,19.80
2018-03-16T04:45:01.406Z,20.40
2018-03-16T04:46:01.373Z,20.50
2018-03-16T04:47:01.337Z,19.70
2018-03-16T04:48:01.304Z,19.40
2018-03-16T04:49:01.274Z,20.00
2018-03-16T04:50:01.239Z,19.20
2018-03-16T04:51:01.207Z,19.30
2018-03-16T04:52:01.174Z,19.40
2018-03-16T04:53:01.148Z,21.10
2018-03-16T04:54:01.113Z,19.20
2018-03-16T04:55:01.080Z,20.50
2018-03-16T04:56:01.047Z,20.20
2018-03-16T04:57:01.010Z,19.60
2018-03-16T04:58:00.988Z,18.70
2018-03-16T04:59:00.948Z,18.60
2018-03-16T05:00:00.921Z,19.60
2018-03-16T05:01:00.885Z,21.00
2018-03-16T05:02:00.848Z,19.10
2018-03-16T05:03:00.816Z,18.60
2018-03-16T05:04:00.790Z,19.70
2018-03-16T05:05:00.752Z,18.50
2018-03-16T05:06:00.725Z,17.90
2018-03-16T05:07:00.684Z,19.00
2018-03-16T05:08:00.656Z,18.80
2018-03-16T05:09:00.623Z,19.00
2018-03-16T05:10:00.588Z,20.20
2018-03-16T05:11:00.554Z,20.90
2018-03-16T05:12:00.527Z,19.40
2018-03-16T05:13:00.490Z,19.10
2018-03-16T05:14:00.470Z,21.10
2018-03-16T05:15:00.429Z,19.40
2018-03-16T05:16:00.400Z,18.50
2018-03-16T05:17:00.365Z,21.10
2018-03-16T05:18:00.328Z,18.80
2018-03-16T05:19:00.293Z,20.40
2018-03-16T05:20:00.266Z,17.40
2018-03-16T05:21:00.258Z,19.30
2018-03-16T05:22:00.195Z,17.40
2018-03-16T05:23:00.171Z,19.40
2018-03-16T05:24:00.134Z,21.00
2018-03-16T05:25:00.112Z,17.70
2018-03-16T05:26:00.070Z,17.70
2018-03-16T05:27:00.036Z,17.60
2018-03-16T05:28:00.000Z,17.20
2018-03-16T05:28:59.965Z,21.70
2018-03-16T05:29:59.936Z,20.30
2018-03-16T05:30:59.902Z,19.30
2018-03-16T05:31:59.868Z,17.20
2018-03-16T05:32:59.840Z,17.10
2018-03-16T05:33:59.810Z,19.20
2018-03-16T05:34:59.774Z,20.00
2018-03-16T05:35:59.737Z,17.40
2018-03-16T05:36:59.703Z,17.80
2018-03-16T05:37:59.683Z,17.80
2018-03-16T05:38:59.640Z,16.20
2018-03-16T05:39:59.610Z,16.80
2018-03-16T05:40:59.577Z,18.10
2018-03-16T05:41:59.553Z,17.10
2018-03-16T05:42:59.509Z,16.70
2018-03-16T05:43:59.483Z,15.60
2018-03-16T05:44:59.444Z,17.40
2018-03-16T05:45:59.410Z,19.20
2018-03-16T05:46:59.380Z,16.20
2018-03-16T05:47:59.347Z,14.90
2018-03-16T05:48:59.311Z,18.90
2018-03-16T05:50:00.485Z,16.10
2018-03-16T05:50:59.252Z,15.30
2018-03-16T05:51:59.218Z,15.20
2018-03-16T05:52:59.184Z,18.10
2018-03-16T05:53:59.152Z,16.80
2018-03-16T05:54:59.122Z,15.90
2018-03-16T05:55:59.081Z,14.40
2018-03-16T05:56:59.054Z,14.90
2018-03-16T05:57:59.023Z,16.70
2018-03-16T05:58:58.984Z,14.40
2018-03-16T05:59:58.958Z,14.80
2018-03-16T06:00:58.918Z,17.40
2018-03-16T06:01:58.893Z,15.90
2018-03-16T06:02:58.856Z,15.20
2018-03-16T06:03:58.825Z,13.30
2018-03-16T06:04:58.798Z,15.30
2018-03-16T06:05:58.761Z,15.70
2018-03-16T06:06:58.727Z,15.60
2018-03-16T06:07:58.693Z,15.90
2018-03-16T06:08:58.657Z,13.30
2018-03-16T06:09:58.625Z,12.60
2018-03-16T06:10:58.594Z,14.90
2018-03-16T06:11:58.559Z,13.20
2018-03-16T06:12:58.529Z,17.20
2018-03-16T06:13:58.494Z,19.20
2018-03-16T06:14:58.465Z,13.90
2018-03-16T06:15:58.444Z,13.70
2018-03-16T06:16:58.396Z,14.70
2018-03-16T06:17:58.375Z,15.40
2018-03-16T06:18:58.330Z,14.00
2018-03-16T06:19:58.299Z,16.90
2018-03-16T06:20:58.265Z,17.00
2018-03-16T06:21:58.235Z,15.00
2018-03-16T06:22:58.203Z,18.10
2018-03-16T06:23:58.172Z,12.00
2018-03-16T06:24:58.141Z,12.80
2018-03-16T06:25:58.106Z,13.50
2018-03-16T06:26:58.075Z,12.60
2018-03-16T06:27:58.043Z,14.40
2018-03-16T06:28:58.008Z,13.30
2018-03-16T06:29:57.976Z,17.70
2018-03-16T06:30:57.942Z,17.80
2018-03-16T06:31:57.908Z,18.90
2018-03-16T06:32:57.874Z,15.90
2018-03-16T06:33:57.849Z,13.20
2018-03-16T06:34:57.814Z,12.70
2018-03-16T06:35:57.784Z,15.20
2018-03-16T06:36:57.750Z,10.90
2018-03-16T06:37:57.713Z,13.20
2018-03-16T06:38:57.680Z,13.10
2018-03-16T06:39:57.650Z,20.80
2018-03-16T06:40:57.617Z,11.10
2018-03-16T06:41:57.582Z,13.60
2018-03-16T06:42:57.554Z,18.20
2018-03-16T06:43:57.522Z,10.90
2018-03-16T06:44:57.631Z,14.70
2018-03-16T06:45:57.458Z,15.10
2018-03-16T06:46:57.417Z,13.20
2018-03-16T06:47:57.390Z,9.40
2018-03-16T06:48:57.354Z,12.40
2018-03-16T06:49:57.323Z,15.70
2018-03-16T06:50:57.297Z,11.80
2018-03-16T06:51:57.315Z,11.70
2018-03-16T06:52:57.233Z,10.90
2018-03-16T06:53:57.201Z,11.70
2018-03-16T06:54:57.163Z,11.90
2018-03-16T06:55:57.125Z,11.90
2018-03-16T06:56:57.105Z,10.20
2018-03-16T06:57:57.063Z,11.40
2018-03-16T06:58:57.043Z,12.70
2018-03-16T06:59:56.998Z,17.20
2018-03-16T07:00:56.974Z,10.70
2018-03-16T07:01:56.929Z,10.90
2018-03-16T07:02:56.900Z,11.60
2018-03-16T07:03:56.875Z,11.40
2018-03-16T07:04:56.854Z,12.90
2018-03-16T07:05:56.808Z,12.00
2018-03-16T07:06:56.767Z,11.40
2018-03-16T07:07:56.737Z,11.50
2018-03-16T07:08:56.708Z,9.50
2018-03-16T07:09:56.680Z,11.30
2018-03-16T07:10:56.637Z,12.40
2018-03-16T07:11:56.605Z,12.30
2018-03-16T07:12:56.571Z,11.50
2018-03-16T07:13:56.544Z,10.70
2018-03-16T07:14:56.515Z,11.50
2018-03-16T07:15:56.475Z,10.60
2018-03-16T07:16:56.446Z,12.70
2018-03-16T07:17:56.417Z,15.70
2018-03-16T07:18:56.376Z,14.00
2018-03-16T07:19:56.344Z,14.20
2018-03-16T07:20:56.316Z,12.10
2018-03-16T07:21:56.284Z,22.50
2018-03-16T07:22:56.259Z,14.50
2018-03-16T07:23:56.217Z,15.80
2018-03-16T07:24:56.191Z,13.50
2018-03-16T07:25:56.157Z,13.30
2018-03-16T07:26:56.118Z,10.60
2018-03-16T07:27:56.086Z,10.00
2018-03-16T07:28:56.108Z,11.70
2018-03-16T07:29:56.019Z,14.40
2018-03-16T07:30:56.013Z,16.60
2018-03-16T07:31:55.959Z,9.40
2018-03-16T07:32:55.924Z,10.30
2018-03-16T07:33:55.896Z,11.20
2018-03-16T07:34:55.863Z,16.50
2018-03-16T07:35:55.829Z,13.60
2018-03-16T07:36:55.794Z,13.70
2018-03-16T07:37:55.768Z,13.80
2018-03-16T07:38:55.740Z,12.50
2018-03-16T07:39:55.705Z,11.60
2018-03-16T07:40:55.674Z,9.70
2018-03-16T07:41:55.641Z,10.70
2018-03-16T07:42:55.605Z,9.40
2018-03-16T07:43:55.571Z,13.20
2018-03-16T07:44:55.546Z,9.40
2018-03-16T07:45:55.519Z,9.10
2018-03-16T07:46:55.469Z,10.30
2018-03-16T07:47:55.450Z,10.70
2018-03-16T07:48:55.412Z,9.70
2018-03-16T07:49:55.381Z,11.40
2018-03-16T07:50:55.395Z,11.10
2018-03-16T07:51:55.319Z,8.20
2018-03-16T07:52:55.277Z,10.30
2018-03-16T07:53:55.247Z,11.60
2018-03-16T07:54:55.217Z,9.60
2018-03-16T07:55:55.180Z,11.30
2018-03-16T07:56:55.156Z,12.10
2018-03-16T07:57:55.131Z,12.10
2018-03-16T07:58:55.090Z,9.80
2018-03-16T07:59:55.051Z,8.50
2018-03-16T08:00:55.025Z,14.20
2018-03-16T08:01:54.990Z,10.60
2018-03-16T08:02:54.960Z,14.90
2018-03-16T08:03:54.936Z,11.90
2018-03-16T08:04:54.912Z,10.20
2018-03-16T08:05:54.863Z,10.50
2018-03-16T08:06:54.829Z,14.50
2018-03-16T08:07:54.798Z,9.10
2018-03-16T08:08:54.768Z,10.10
2018-03-16T08:09:54.737Z,10.10
2018-03-16T08:10:54.702Z,14.20
2018-03-16T08:11:54.679Z,13.00
2018-03-16T08:12:54.638Z,9.30
2018-03-16T08:13:54.609Z,11.90
2018-03-16T08:14:54.574Z,10.80
2018-03-16T08:15:54.555Z,8.80
2018-03-16T08:16:54.516Z,9.70
2018-03-16T08:17:54.485Z,9.30
2018-03-16T08:18:54.478Z,9.50
2018-03-16T08:19:54.421Z,10.20
2018-03-16T08:20:54.380Z,13.50
2018-03-16T08:21:54.351Z,11.50
2018-03-16T08:22:54.316Z,12.40
2018-03-16T08:23:54.290Z,11.00
2018-03-16T08:24:54.253Z,12.30
2018-03-16T08:25:54.221Z,10.50
2018-03-16T08:26:54.200Z,16.50
2018-03-16T08:27:54.162Z,8.40
2018-03-16T08:28:54.125Z,13.10
2018-03-16T08:29:54.095Z,12.50
2018-03-16T08:30:54.061Z,10.90
2018-03-16T08:31:54.030Z,12.70
2018-03-16T08:32:53.999Z,12.40
2018-03-16T08:33:53.996Z,13.20
2018-03-16T08:34:53.935Z,9.60
2018-03-16T08:35:53.901Z,12.80
2018-03-16T08:36:53.874Z,10.10
2018-03-16T08:37:53.844Z,11.90
2018-03-16T08:38:53.812Z,10.20
2018-03-16T08:39:53.778Z,10.60
2018-03-16T08:40:53.746Z,8.80
2018-03-16T08:41:53.713Z,11.70
2018-03-16T08:42:53.679Z,10.00
2018-03-16T08:43:53.655Z,10.70
2018-03-16T08:44:53.616Z,8.00
2018-03-16T08:45:53.583Z,9.90
2018-03-16T08:46:53.550Z,9.60
2018-03-16T08:47:53.520Z,11.40
2018-03-16T08:48:53.488Z,12.10
2018-03-16T08:49:53.458Z,11.10
2018-03-16T08:50:53.432Z,14.90
2018-03-16T08:51:53.394Z,10.20
2018-03-16T08:52:53.378Z,9.10
2018-03-16T08:53:53.327Z,12.40
2018-03-16T08:54:53.295Z,12.10
2018-03-16T08:55:53.264Z,10.00
2018-03-16T08:56:53.234Z,11.00
2018-03-16T08:57:53.205Z,8.70
2018-03-16T08:58:53.171Z,13.60
2018-03-16T08:59:53.139Z,11.20
2018-03-16T09:00:53.107Z,10.30
2018-03-16T09:01:53.076Z,9.10
2018-03-16T09:02:53.064Z,10.90
2018-03-16T09:03:53.019Z,11.60
2018-03-16T09:04:52.979Z,10.70
2018-03-16T09:05:52.952Z,13.50
2018-03-16T09:06:52.919Z,11.20
2018-03-16T09:07:52.889Z,12.20
2018-03-16T09:08:52.855Z,10.50
2018-03-16T09:09:52.823Z,11.30
2018-03-16T09:10:52.805Z,8.10
2018-03-16T09:11:52.757Z,10.80
2018-03-16T09:12:52.726Z,12.20
2018-03-16T09:13:52.699Z,7.80
2018-03-16T09:14:52.661Z,9.60
2018-03-16T09:15:52.638Z,11.70
2018-03-16T09:16:52.600Z,12.30
2018-03-16T09:17:52.573Z,10.80
2018-03-16T09:18:52.538Z,11.20
2018-03-16T09:19:52.507Z,10.20
2018-03-16T09:20:52.475Z,9.00
2018-03-16T09:21:52.444Z,9.60
2018-03-16T09:22:52.412Z,9.80
2018-03-16T09:23:52.376Z,11.00
2018-03-16T09:24:52.349Z,9.90
2018-03-16T09:25:52.317Z,14.30
2018-03-16T09:26:52.281Z,11.20
2018-03-16T09:27:52.251Z,13.70
2018-03-16T09:28:52.222Z,11.30
2018-03-16T09:29:52.197Z,11.80
2018-03-16T09:30:52.160Z,12.20
2018-03-16T09:31:52.124Z,10.50
2018-03-16T09:32:52.092Z,9.90
2018-03-16T09:33:52.061Z,11.50
2018-03-16T09:34:52.050Z,10.60
2018-03-16T09:35:52.033Z,8.70
2018-03-16T09:36:51.969Z,8.50
2018-03-16T09:37:51.944Z,9.50
2018-03-16T09:38:51.901Z,13.80
2018-03-16T09:39:51.886Z,10.00
2018-03-16T09:40:51.846Z,10.00
2018-03-16T09:41:51.812Z,10.90
2018-03-16T09:42:51.776Z,9.50
2018-03-16T09:43:51.756Z,9.50
2018-03-16T09:44:51.724Z,11.90
2018-03-16T09:45:51.687Z,9.90
2018-03-16T09:46:51.651Z,8.80
2018-03-16T09:47:51.630Z,9.40
2018-03-16T09:48:51.595Z,16.60
2018-03-16T09:49:51.561Z,15.70
2018-03-16T09:50:51.524Z,19.50
2018-03-16T09:51:51.499Z,15.40
2018-03-16T09:52:51.462Z,8.10
2018-03-16T09:53:51.450Z,15.50
2018-03-16T09:54:51.401Z,9.10
2018-03-16T09:55:51.377Z,12.60
2018-03-16T09:56:51.342Z,13.40
2018-03-16T09:57:51.305Z,9.10
2018-03-16T09:58:51.275Z,10.50
2018-03-16T09:59:51.246Z,9.70
2018-03-16T10:00:51.216Z,10.20
2018-03-16T10:01:51.194Z,11.80
2018-03-16T10:02:51.160Z,10.50
2018-03-16T10:03:51.118Z,13.20
2018-03-16T10:04:51.088Z,9.30
2018-03-16T10:05:51.056Z,15.80
2018-03-16T10:06:51.023Z,39.10
2018-03-16T10:07:50.991Z,15.60
2018-03-16T10:08:50.961Z,10.10
2018-03-16T10:09:50.933Z,10.70
2018-03-16T10:10:50.900Z,13.60
2018-03-16T10:11:50.864Z,14.80
2018-03-16T10:12:50.843Z,8.50
2018-03-16T10:13:50.806Z,10.10
2018-03-16T10:14:50.767Z,10.90
2018-03-16T10:15:50.745Z,12.10
2018-03-16T10:16:50.710Z,25.20
2018-03-16T10:17:50.674Z,18.30
2018-03-16T10:18:50.647Z,19.10
2018-03-16T10:19:50.610Z,17.20
2018-03-16T10:20:50.592Z,12.00
2018-03-16T10:21:50.555Z,13.30
2018-03-16T10:22:50.524Z,9.50
2018-03-16T10:23:50.489Z,13.80
2018-03-16T10:24:50.457Z,14.70
2018-03-16T10:25:50.421Z,9.70
2018-03-16T10:26:50.396Z,8.20
2018-03-16T10:27:50.361Z,9.90
2018-03-16T10:28:50.331Z,9.10
2018-03-16T10:29:50.303Z,8.10
2018-03-16T10:30:50.264Z,10.20
2018-03-16T10:31:50.240Z,9.20
2018-03-16T10:32:50.204Z,8.60
2018-03-16T10:33:50.175Z,10.50
2018-03-16T10:34:50.143Z,9.10
2018-03-16T10:35:50.113Z,8.20
2018-03-16T10:36:50.084Z,6.90
2018-03-16T10:37:50.055Z,10.40
2018-03-16T10:38:50.027Z,8.50
2018-03-16T10:39:49.983Z,13.00
2018-03-16T10:40:49.960Z,8.30
2018-03-16T10:41:49.933Z,9.00
2018-03-16T10:42:49.911Z,7.30
2018-03-16T10:43:49.856Z,8.20
2018-03-16T10:44:49.825Z,8.40
2018-03-16T10:45:49.807Z,10.10
2018-03-16T10:46:49.766Z,10.80
2018-03-16T10:47:49.737Z,9.10
2018-03-16T10:48:49.705Z,8.30
2018-03-16T10:49:49.675Z,7.50
2018-03-16T10:50:49.650Z,7.80
2018-03-16T10:51:49.612Z,10.40
2018-03-16T10:52:49.586Z,12.40
2018-03-16T10:53:49.697Z,9.00
2018-03-16T10:54:49.517Z,9.70
2018-03-16T10:55:49.480Z,16.00
2018-03-16T10:56:49.457Z,9.90
2018-03-16T10:57:49.425Z,11.00
2018-03-16T10:58:49.387Z,9.40
2018-03-16T10:59:49.366Z,10.20
2018-03-16T11:00:49.332Z,8.40
2018-03-16T11:01:49.295Z,6.90
2018-03-16T11:02:49.264Z,12.80
2018-03-16T11:03:49.235Z,11.90
2018-03-16T11:04:49.200Z,10.10
2018-03-16T11:05:49.175Z,12.60
2018-03-16T11:06:49.141Z,13.00
2018-03-16T11:07:49.105Z,13.70
2018-03-16T11:08:49.082Z,14.70
2018-03-16T11:09:49.043Z,12.70
2018-03-16T11:10:49.012Z,11.60
2018-03-16T11:11:48.984Z,8.80
2018-03-16T11:12:48.956Z,7.70
2018-03-16T11:13:48.930Z,8.60
2018-03-16T11:14:48.887Z,9.90
2018-03-16T11:15:48.866Z,9.60
2018-03-16T11:16:48.828Z,8.60
2018-03-16T11:17:48.797Z,10.80
2018-03-16T11:18:48.766Z,8.60
2018-03-16T11:19:48.733Z,7.70
2018-03-16T11:20:48.703Z,10.80
2018-03-16T11:21:48.676Z,14.30
2018-03-16T11:22:48.636Z,13.40
2018-03-16T11:23:48.612Z,10.50
2018-03-16T11:24:48.585Z,10.50
2018-03-16T11:25:48.560Z,10.20
2018-03-16T11:26:48.531Z,11.80
2018-03-16T11:27:48.480Z,8.00
2018-03-16T11:28:48.464Z,9.50
2018-03-16T11:29:48.421Z,9.90
2018-03-16T11:30:48.388Z,9.90
2018-03-16T11:31:48.363Z,14.90
2018-03-16T11:32:48.327Z,17.90
2018-03-16T11:33:48.298Z,13.10
2018-03-16T11:34:48.268Z,8.30
2018-03-16T11:35:48.237Z,9.80
2018-03-16T11:36:48.209Z,9.10
2018-03-16T11:37:48.172Z,15.00
2018-03-16T11:38:48.137Z,12.10
2018-03-16T11:39:48.107Z,13.90
2018-03-16T11:40:48.074Z,17.70
2018-03-16T11:41:48.047Z,13.80
2018-03-16T11:42:48.015Z,9.20
2018-03-16T11:43:47.985Z,10.20
2018-03-16T11:44:47.952Z,8.30
2018-03-16T11:45:47.917Z,9.00
2018-03-16T11:46:47.889Z,11.60
2018-03-16T11:47:47.858Z,9.00
2018-03-16T11:48:47.834Z,8.80
2018-03-16T11:49:47.799Z,7.80
2018-03-16T11:50:47.763Z,7.30
2018-03-16T11:51:47.735Z,7.40
2018-03-16T11:52:47.723Z,17.30
2018-03-16T11:53:47.683Z,7.50
2018-03-16T11:54:47.646Z,15.30
2018-03-16T11:55:47.621Z,11.70
2018-03-16T11:56:47.581Z,8.10
2018-03-16T11:57:47.546Z,9.00
2018-03-16T11:58:47.522Z,9.20
2018-03-16T11:59:47.484Z,7.10
2018-03-16T12:00:47.459Z,6.70
2018-03-16T12:01:47.422Z,9.00
2018-03-16T12:02:47.408Z,8.40
2018-03-16T12:03:47.366Z,13.80
2018-03-16T12:04:47.330Z,10.50
2018-03-16T12:05:47.298Z,28.50
2018-03-16T12:06:47.270Z,9.00
2018-03-16T12:07:47.245Z,9.10
2018-03-16T12:08:47.220Z,5.60
2018-03-16T12:09:47.180Z,6.50
2018-03-16T12:10:47.221Z,9.10
2018-03-16T12:11:47.120Z,6.90
2018-03-16T12:12:47.094Z,7.50
2018-03-16T12:13:47.053Z,9.60
2018-03-16T12:14:47.018Z,8.80
2018-03-16T12:15:46.996Z,14.70
2018-03-16T12:16:46.985Z,11.00
2018-03-16T12:17:46.930Z,13.00
2018-03-16T12:18:46.901Z,9.50
2018-03-16T12:19:46.866Z,7.50
2018-03-16T12:20:46.842Z,18.70
2018-03-16T12:21:46.806Z,7.40
2018-03-16T12:22:46.775Z,6.50
2018-03-16T12:23:46.753Z,5.90
2018-03-16T12:24:46.722Z,7.60
2018-03-16T12:25:46.689Z,6.80
2018-03-16T12:26:46.670Z,13.70
2018-03-16T12:27:46.621Z,14.30
2018-03-16T12:28:49.950Z,7.80
2018-03-16T12:29:46.557Z,9.50
2018-03-16T12:30:46.531Z,5.50
2018-03-16T12:31:46.492Z,10.40
2018-03-16T12:32:46.462Z,12.90
2018-03-16T12:33:46.442Z,14.70
2018-03-16T12:34:46.401Z,8.20
2018-03-16T12:35:46.376Z,9.30
2018-03-16T12:36:46.345Z,6.50
2018-03-16T12:37:46.318Z,5.20
2018-03-16T12:38:46.274Z,8.60
2018-03-16T12:39:46.247Z,8.30
2018-03-16T12:40:46.219Z,9.60
2018-03-16T12:41:46.195Z,6.40
2018-03-16T12:42:46.154Z,6.80
2018-03-16T12:43:46.125Z,11.70
2018-03-16T12:44:46.124Z,10.70
2018-03-16T12:45:46.068Z,6.50
2018-03-16T12:46:46.025Z,12.20
2018-03-16T12:47:45.993Z,7.00
2018-03-16T12:48:45.961Z,11.00
2018-03-16T12:49:45.932Z,11.50
2018-03-16T12:50:45.907Z,9.40
2018-03-16T12:51:45.874Z,10.40
2018-03-16T12:52:45.850Z,8.50
2018-03-16T12:53:45.820Z,11.80
2018-03-16T12:54:45.779Z,10.10
2018-03-16T12:55:45.765Z,10.20
2018-03-16T12:56:45.715Z,8.20